Time;durP1;ratioP1;P1;durP2;ratioP2;P2;SDS_P1;SDS_P2;PMS_P1;PMS_P2;Temp;Humidity;BMP_temperature;BMP_pressure;BME280_temperature;BME280_humidity;BME280_pressure;Samples;Min_cycle;Max_cycle;Signal;HPM_P1;HPM_P2
2023/05/19 00:01:09;;;;;;;8.17;3.37;;;;;;;-145.18;100.00;46638.91;5029256;28;20270;-64
2023/05/19 00:03:39;;;;;;;7.70;3.07;;;;;;;-145.18;100.00;46631.09;5025496;28;20300;-64
2023/05/19 00:06:09;;;;;;;6.67;3.57;;;;;;;-145.18;100.00;46582.25;5031630;28;20587;-64
2023/05/19 00:08:37;;;;;;;8.50;3.27;;;;;;;-145.18;100.00;46627.19;5040820;28;20279;-64
2023/05/19 00:11:02;;;;;;;6.77;3.13;;;;;;;-145.18;100.00;46574.44;5041078;28;20383;-64
2023/05/19 00:13:28;;;;;;;11.90;3.90;;;;;;;-145.18;100.00;46578.34;5039765;28;20301;-64
2023/05/19 00:15:54;;;;;;;10.37;3.30;;;;;;;-145.18;100.00;46576.41;5040719;28;20029;-64
2023/05/19 00:18:19;;;;;;;14.53;3.60;;;;;;;-145.18;100.00;46613.50;5041868;28;20048;-64
2023/05/19 00:20:45;;;;;;;8.23;3.63;;;;;;;-145.18;100.00;46572.50;5022732;28;20040;-64
2023/05/19 00:23:10;;;;;;;7.47;3.60;;;;;;;-145.18;100.00;46566.63;5040367;28;20040;-64
2023/05/19 00:25:36;;;;;;;8.67;3.50;;;;;;;-145.18;100.00;46564.69;5038473;28;20234;-63
2023/05/19 00:28:01;;;;;;;9.23;3.80;;;;;;;-145.18;100.00;46562.72;4997311;28;20464;-64
2023/05/19 00:30:28;;;;;;;8.70;4.70;;;;;;;-145.18;100.00;46566.63;5026730;28;20639;-63
2023/05/19 00:32:53;;;;;;;12.63;3.77;;;;;;;-145.18;100.00;46568.59;5028537;28;20029;-64
2023/05/19 00:35:19;;;;;;;11.30;4.00;;;;;;;-145.18;100.00;46566.63;5042246;28;20507;-64
2023/05/19 00:37:45;;;;;;;8.67;3.70;;;;;;;-145.18;100.00;46564.69;5027451;28;20605;-64
2023/05/19 00:40:11;;;;;;;7.97;3.40;;;;;;;-145.18;100.00;46564.69;5023302;28;20039;-64
2023/05/19 00:42:37;;;;;;;6.63;3.67;;;;;;;-145.18;100.00;46570.53;5037261;28;20032;-64
2023/05/19 00:45:03;;;;;;;10.80;3.70;;;;;;;-145.18;100.00;46613.50;5004246;28;20033;-64
2023/05/19 00:47:28;;;;;;;7.13;4.40;;;;;;;-145.18;100.00;46615.47;5035088;28;20272;-64
2023/05/19 00:49:53;;;;;;;9.90;3.93;;;;;;;-145.18;100.00;46615.47;5012054;28;20039;-64
2023/05/19 00:52:19;;;;;;;9.23;3.73;;;;;;;-145.18;100.00;46617.41;5039834;28;20570;-64
2023/05/19 00:54:45;;;;;;;7.67;3.93;;;;;;;-145.18;100.00;46615.47;5027567;28;20036;-64
2023/05/19 00:57:12;;;;;;;8.03;3.53;;;;;;;-145.18;100.00;46623.28;5029596;28;20567;-64
2023/05/19 00:59:38;;;;;;;10.63;4.00;;;;;;;-145.18;100.00;46633.06;5035694;28;20057;-64
2023/05/19 01:02:03;;;;;;;7.73;3.50;;;;;;;-145.18;100.00;46650.63;5020896;28;20310;-64
2023/05/19 01:04:33;;;;;;;10.83;3.70;;;;;;;-145.18;100.00;46654.53;5023101;28;20706;-64
2023/05/19 01:06:59;;;;;;;7.37;4.00;;;;;;;-145.18;100.00;46660.41;5028955;28;20040;-64
2023/05/19 01:09:25;;;;;;;8.07;3.97;;;;;;;-145.18;100.00;46676.03;5025509;28;20267;-64
2023/05/19 01:11:51;;;;;;;9.67;3.93;;;;;;;-145.18;100.00;46654.53;5020836;28;20028;-64
2023/05/19 01:14:17;;;;;;;10.03;3.50;;;;;;;-145.18;100.00;46662.34;5021836;28;20423;-64
2023/05/19 01:16:53;;;;;;;9.43;4.10;;;;;;;-145.18;100.00;46662.34;5025972;28;20077;-64
2023/05/19 01:19:39;;;;;;;6.78;3.60;;;;;;;-145.18;100.00;46676.03;5039902;28;20935;-64
2023/05/19 01:22:31;;;;;;;10.63;3.57;;;;;;;-145.18;100.00;46674.06;5021302;28;20034;-64
2023/05/19 01:25:24;;;;;;;10.97;3.03;;;;;;;-145.18;100.00;46679.94;5040199;28;20254;-64
2023/05/19 01:28:11;;;;;;;8.37;3.80;;;;;;;-145.18;100.00;46689.69;5032286;28;20263;-64
2023/05/19 01:30:39;;;;;;;9.50;4.50;;;;;;;-145.18;100.00;46695.56;5026806;28;20803;-64
2023/05/19 01:33:10;;;;;;;9.73;3.63;;;;;;;-145.18;100.00;46691.66;5032871;28;20258;-64
2023/05/19 01:35:37;;;;;;;10.57;4.60;;;;;;;-145.18;100.00;46697.50;5039443;28;20246;-64
2023/05/19 01:38:09;;;;;;;12.03;4.00;;;;;;;-145.18;100.00;46693.59;5043079;28;20477;-64
2023/05/19 01:40:37;;;;;;;10.23;4.20;;;;;;;-145.18;100.00;46689.69;5034472;28;20345;-64
2023/05/19 01:43:03;;;;;;;8.40;3.97;;;;;;;-145.18;100.00;46693.59;5020426;28;20294;-64
2023/05/19 01:45:30;;;;;;;8.70;4.03;;;;;;;-145.18;100.00;46695.56;5033080;28;20269;-64
2023/05/19 01:47:59;;;;;;;13.93;4.23;;;;;;;-145.18;100.00;46691.66;5029509;28;20274;-64
2023/05/19 01:50:25;;;;;;;7.13;4.07;;;;;;;-145.18;100.00;46691.66;5038471;28;20514;-64
2023/05/19 01:52:51;;;;;;;8.93;4.17;;;;;;;-145.18;100.00;46695.56;5039499;28;20586;-64
2023/05/19 01:55:17;;;;;;;9.23;4.67;;;;;;;-145.18;100.00;46693.59;5038595;28;20021;-64
2023/05/19 01:57:52;;;;;;;7.23;4.23;;;;;;;-145.18;100.00;46687.75;5015182;28;20041;-64
2023/05/19 02:00:39;;;;;;;10.03;4.13;;;;;;;-145.18;100.00;46691.66;5036066;28;20266;-64
2023/05/19 02:03:22;;;;;;;10.83;3.97;;;;;;;-145.18;100.00;46691.66;5020430;28;20275;-64
2023/05/19 02:06:25;;;;;;;6.87;3.70;;;;;;;-145.18;100.00;46691.66;5020840;28;20254;-64
2023/05/19 02:08:59;;;;;;;16.20;4.87;;;;;;;-145.18;100.00;46695.56;5032377;28;20334;-64
2023/05/19 02:11:36;;;;;;;17.03;4.90;;;;;;;-145.18;100.00;46689.69;5027710;28;20352;-64
2023/05/19 02:14:12;;;;;;;7.87;4.10;;;;;;;-145.18;100.00;46691.66;5025609;28;20778;-64
2023/05/19 02:16:38;;;;;;;9.67;4.40;;;;;;;-145.18;100.00;46695.56;5039731;28;20416;-64
2023/05/19 02:19:04;;;;;;;13.23;4.63;;;;;;;-145.18;100.00;46687.75;5027808;28;20112;-64
2023/05/19 02:21:29;;;;;;;9.83;3.80;;;;;;;-145.18;100.00;46691.66;5030344;28;20035;-64
2023/05/19 02:23:55;;;;;;;11.03;4.33;;;;;;;-145.18;100.00;46681.88;5039281;28;20041;-64
2023/05/19 02:26:20;;;;;;;12.60;4.67;;;;;;;-145.18;100.00;46685.78;5041908;28;20036;-64
2023/05/19 02:28:45;;;;;;;13.23;5.00;;;;;;;-145.18;100.00;46693.59;5043189;28;20569;-64
2023/05/19 02:31:11;;;;;;;13.73;5.30;;;;;;;-145.18;100.00;46687.75;5014872;28;20575;-64
2023/05/19 02:33:36;;;;;;;12.27;5.03;;;;;;;-145.18;100.00;46679.94;5041527;28;20036;-64
2023/05/19 02:36:02;;;;;;;10.20;5.13;;;;;;;-145.18;100.00;46687.75;5024785;28;20033;-64
2023/05/19 02:38:27;;;;;;;10.80;4.53;;;;;;;-145.18;100.00;46679.94;5036415;28;20025;-64
2023/05/19 02:40:52;;;;;;;13.27;5.37;;;;;;;-145.18;100.00;46681.88;5024284;28;20065;-64
2023/05/19 02:43:18;;;;;;;12.57;5.53;;;;;;;-145.18;100.00;46681.88;5023988;28;20102;-64
2023/05/19 02:45:44;;;;;;;10.00;4.93;;;;;;;-145.18;100.00;46683.84;5022837;28;20083;-64
2023/05/19 02:48:09;;;;;;;11.33;4.87;;;;;;;-145.18;100.00;46677.97;5023346;28;20130;-64
2023/05/19 02:50:35;;;;;;;10.33;5.20;;;;;;;-145.18;100.00;46676.03;5023754;28;20069;-64
2023/05/19 02:53:01;;;;;;;10.23;4.90;;;;;;;-145.18;100.00;46670.16;5024637;28;20164;-64
2023/05/19 02:55:27;;;;;;;8.53;4.40;;;;;;;-145.18;100.00;46670.16;5024277;28;20033;-64
2023/05/19 02:57:52;;;;;;;16.33;4.90;;;;;;;-145.18;100.00;46672.13;5023692;28;20262;-64
2023/05/19 03:00:18;;;;;;;15.23;5.20;;;;;;;-145.18;100.00;46674.06;5036779;28;20489;-64
2023/05/19 03:02:43;;;;;;;12.37;4.50;;;;;;;-145.18;100.00;46674.06;5042519;28;20583;-64
2023/05/19 03:05:09;;;;;;;11.00;5.00;;;;;;;-145.18;100.00;46672.13;5040011;28;20115;-64
2023/05/19 03:07:35;;;;;;;11.87;4.50;;;;;;;-145.18;100.00;46672.13;5012624;28;20028;-64
2023/05/19 03:10:02;;;;;;;12.03;4.87;;;;;;;-145.18;100.00;46668.22;5041799;28;20059;-64
2023/05/19 03:12:28;;;;;;;8.97;5.10;;;;;;;-145.18;100.00;46670.16;5042125;28;20025;-64
2023/05/19 03:14:54;;;;;;;12.00;4.93;;;;;;;-145.18;100.00;46666.25;5038347;28;20267;-64
2023/05/19 03:17:19;;;;;;;8.90;4.50;;;;;;;-145.18;100.00;46674.06;5042729;28;20144;-64
2023/05/19 03:19:45;;;;;;;8.43;4.70;;;;;;;-145.18;100.00;46668.22;5037483;28;20609;-64
2023/05/19 03:22:10;;;;;;;11.53;5.30;;;;;;;-145.18;100.00;46664.31;5034646;28;20304;-64
2023/05/19 03:24:36;;;;;;;8.43;4.97;;;;;;;-145.18;100.00;46668.22;5042812;28;20751;-64
2023/05/19 03:27:04;;;;;;;12.13;4.80;;;;;;;-145.18;100.00;46664.31;5030865;28;20062;-64
2023/05/19 03:29:29;;;;;;;9.33;4.63;;;;;;;-145.18;100.00;46672.13;5034080;28;20045;-64
2023/05/19 03:31:55;;;;;;;13.37;4.97;;;;;;;-145.18;100.00;46664.31;5041982;28;20738;-64
2023/05/19 03:34:21;;;;;;;13.63;5.23;;;;;;;-145.18;100.00;46677.97;5043455;28;20120;-64
2023/05/19 03:36:48;;;;;;;8.90;4.30;;;;;;;-145.18;100.00;46668.22;5029601;28;20069;-64
2023/05/19 03:39:14;;;;;;;9.53;5.30;;;;;;;-145.18;100.00;46664.31;5008970;28;20086;-64
2023/05/19 03:41:39;;;;;;;13.10;5.07;;;;;;;-145.18;100.00;46664.31;5041308;28;20443;-64
2023/05/19 03:44:05;;;;;;;11.23;5.47;;;;;;;-145.18;100.00;46660.41;5025836;28;20025;-64
2023/05/19 03:46:30;;;;;;;10.80;4.90;;;;;;;-145.18;100.00;46660.41;5032043;28;20043;-64
2023/05/19 03:48:55;;;;;;;13.37;4.77;;;;;;;-145.18;100.00;46664.31;5042196;28;20061;-64
2023/05/19 03:51:21;;;;;;;9.27;5.20;;;;;;;-145.18;100.00;46660.41;5023318;28;20034;-64
2023/05/19 03:53:47;;;;;;;13.87;4.83;;;;;;;-145.18;100.00;46666.25;5035103;28;20486;-64
2023/05/19 03:56:13;;;;;;;12.07;4.93;;;;;;;-145.18;100.00;46664.31;4999700;28;20091;-64
2023/05/19 03:58:42;;;;;;;11.93;5.50;;;;;;;-145.18;100.00;46658.44;5020336;28;20270;-64
2023/05/19 04:01:07;;;;;;;11.57;5.37;;;;;;;-145.18;100.00;46664.31;5030928;28;20709;-64
2023/05/19 04:03:33;;;;;;;12.70;5.17;;;;;;;-145.18;100.00;46664.31;5032449;28;20395;-64
2023/05/19 04:05:58;;;;;;;15.80;5.40;;;;;;;-145.18;100.00;46662.34;5027755;28;20383;-64
2023/05/19 04:08:23;;;;;;;10.77;5.40;;;;;;;-145.18;100.00;46658.44;5021994;28;20033;-64
2023/05/19 04:10:49;;;;;;;14.50;5.53;;;;;;;-145.18;100.00;46656.50;5030349;28;20517;-64
2023/05/19 04:13:14;;;;;;;14.50;6.07;;;;;;;-145.18;100.00;46658.44;5039329;28;20088;-64
2023/05/19 04:15:40;;;;;;;12.73;5.37;;;;;;;-145.18;100.00;46660.41;5021110;28;20123;-64
2023/05/19 04:18:05;;;;;;;11.63;5.67;;;;;;;-145.18;100.00;46660.41;5036638;28;20052;-64
2023/05/19 04:20:31;;;;;;;9.70;5.23;;;;;;;-145.18;100.00;46660.41;4985628;28;20025;-65
2023/05/19 04:22:56;;;;;;;11.87;6.03;;;;;;;-145.18;100.00;46662.34;5023677;28;20033;-64
2023/05/19 04:25:24;;;;;;;13.10;5.60;;;;;;;-145.18;100.00;46654.53;5004204;28;20470;-64
2023/05/19 04:27:49;;;;;;;11.00;5.47;;;;;;;-145.18;100.00;46658.44;5051209;28;20033;-64
2023/05/19 04:30:20;;;;;;;11.57;6.03;;;;;;;-145.18;100.00;46656.50;5046555;28;20286;-64
2023/05/19 04:32:47;;;;;;;13.53;6.10;;;;;;;-145.18;100.00;46656.50;5033512;28;20033;-64
2023/05/19 04:35:12;;;;;;;10.20;5.37;;;;;;;-145.18;100.00;46654.53;5033142;28;20266;-64
2023/05/19 04:37:37;;;;;;;8.70;5.70;;;;;;;-145.18;100.00;46660.41;5030002;28;20291;-65
2023/05/19 04:40:05;;;;;;;14.33;5.97;;;;;;;-145.18;100.00;46660.41;5033413;28;20496;-65
2023/05/19 04:42:31;;;;;;;14.10;5.83;;;;;;;-145.18;100.00;46660.41;5041491;28;20021;-64
2023/05/19 04:44:57;;;;;;;11.40;5.73;;;;;;;-145.18;100.00;46664.31;5041235;28;20611;-64
2023/05/19 04:47:26;;;;;;;13.60;5.23;;;;;;;-145.18;100.00;46664.31;5041876;28;20266;-64
2023/05/19 04:49:54;;;;;;;12.67;5.77;;;;;;;-145.18;100.00;46664.31;5041564;28;20090;-64
2023/05/19 04:52:21;;;;;;;12.90;6.13;;;;;;;-145.18;100.00;46658.44;5023076;28;20267;-65
2023/05/19 04:54:46;;;;;;;11.67;5.47;;;;;;;-145.18;100.00;46662.34;5032800;28;20295;-64
2023/05/19 04:57:12;;;;;;;9.87;5.50;;;;;;;-145.18;100.00;46658.44;5038967;28;20797;-64
2023/05/19 04:59:37;;;;;;;15.63;6.27;;;;;;;-145.18;100.00;46660.41;5032929;28;20037;-64
2023/05/19 05:02:03;;;;;;;17.80;6.63;;;;;;;-145.18;100.00;46658.44;5036179;28;20104;-64
2023/05/19 05:04:28;;;;;;;16.17;6.20;;;;;;;-145.18;100.00;46662.34;5052273;28;20444;-64
2023/05/19 05:06:54;;;;;;;14.27;6.30;;;;;;;-145.18;100.00;46662.34;5015046;28;20060;-64
2023/05/19 05:09:19;;;;;;;16.50;5.93;;;;;;;-145.18;100.00;46658.44;5042332;28;20033;-64
2023/05/19 05:11:45;;;;;;;14.30;5.53;;;;;;;-145.18;100.00;46662.34;5052731;28;20052;-64
2023/05/19 05:14:11;;;;;;;20.53;6.37;;;;;;;-145.18;100.00;46660.41;5034932;28;20033;-64
2023/05/19 05:16:37;;;;;;;14.73;6.30;;;;;;;-145.18;100.00;46666.25;5046321;28;20540;-64
2023/05/19 05:19:02;;;;;;;11.57;6.30;;;;;;;-145.18;100.00;46662.34;5032775;28;20108;-64
2023/05/19 05:21:28;;;;;;;14.60;5.90;;;;;;;-145.18;100.00;46658.44;5033077;28;20120;-65
2023/05/19 05:23:54;;;;;;;13.70;6.40;;;;;;;-145.18;100.00;46666.25;5032550;28;20121;-64
2023/05/19 05:26:23;;;;;;;12.23;6.40;;;;;;;-145.18;100.00;46660.41;5032926;28;20021;-64
2023/05/19 05:28:49;;;;;;;12.47;5.47;;;;;;;-145.18;100.00;46660.41;5035926;28;20704;-64
2023/05/19 05:31:15;;;;;;;14.33;5.93;;;;;;;-145.18;100.00;46664.31;5042811;28;20270;-64
2023/05/19 05:33:40;;;;;;;13.87;5.70;;;;;;;-145.18;100.00;46664.31;5034233;28;20028;-64
2023/05/19 05:36:06;;;;;;;15.60;6.30;;;;;;;-145.18;100.00;46660.41;5041248;28;20055;-64
2023/05/19 05:38:32;;;;;;;11.13;6.20;;;;;;;-145.18;100.00;46664.31;5034123;28;20029;-64
2023/05/19 05:40:57;;;;;;;19.13;6.77;;;;;;;-145.18;100.00;46664.31;5039744;28;20118;-64
2023/05/19 05:43:23;;;;;;;9.23;5.80;;;;;;;-145.18;100.00;46664.31;5038261;28;20036;-64
2023/05/19 05:45:48;;;;;;;16.70;6.00;;;;;;;-145.18;100.00;46668.22;5014328;28;20037;-64
2023/05/19 05:48:14;;;;;;;9.73;5.83;;;;;;;-145.18;100.00;46666.25;5032419;28;20125;-64
2023/05/19 05:50:43;;;;;;;15.53;6.13;;;;;;;-145.18;100.00;46662.34;5043971;28;20067;-64
2023/05/19 05:53:08;;;;;;;12.20;6.00;;;;;;;-145.18;100.00;46668.22;5051197;28;20027;-64
2023/05/19 05:55:34;;;;;;;13.20;6.13;;;;;;;-145.18;100.00;46666.25;5040371;28;20270;-64
2023/05/19 05:58:01;;;;;;;11.33;5.80;;;;;;;-145.18;100.00;46666.25;5043772;28;20121;-64
2023/05/19 06:00:27;;;;;;;13.77;5.77;;;;;;;-145.18;100.00;46668.22;5042102;28;20029;-65
2023/05/19 06:02:53;;;;;;;14.80;6.73;;;;;;;-145.18;100.00;46672.13;5044522;28;20393;-64
2023/05/19 06:05:18;;;;;;;12.23;6.27;;;;;;;-145.18;100.00;46666.25;5052707;28;20400;-64
2023/05/19 06:07:44;;;;;;;15.53;6.37;;;;;;;-145.18;100.00;46672.13;5059676;28;20018;-64
2023/05/19 06:10:10;;;;;;;10.70;5.70;;;;;;;-145.18;100.00;46658.44;5031836;28;20068;-64
2023/05/19 06:12:39;;;;;;;11.67;6.00;;;;;;;-145.18;100.00;46654.53;5002533;28;20704;-64
2023/05/19 06:15:06;;;;;;;13.20;6.50;;;;;;;-145.18;100.00;46644.78;5036800;28;20053;-64
2023/05/19 06:17:34;;;;;;;10.03;5.73;;;;;;;-145.18;100.00;46638.91;5050941;28;20365;-65
2023/05/19 06:20:00;;;;;;;11.27;5.47;;;;;;;-145.18;100.00;46635.00;5051505;28;20281;-64
2023/05/19 06:22:26;;;;;;;23.60;6.80;;;;;;;-145.18;100.00;46635.00;5030238;28;20278;-64
2023/05/19 06:24:52;;;;;;;9.67;5.70;;;;;;;-145.18;100.00;46617.41;5046764;28;20044;-64
2023/05/19 06:27:17;;;;;;;11.93;6.60;;;;;;;-145.18;100.00;46586.16;5031566;28;20262;-64
2023/05/19 06:29:42;;;;;;;8.43;5.43;;;;;;;-145.18;100.00;46580.31;5034621;28;20037;-64
2023/05/19 06:32:08;;;;;;;11.87;6.27;;;;;;;-145.18;100.00;46568.59;5038657;28;20079;-64
2023/05/19 06:34:33;;;;;;;10.97;6.30;;;;;;;-145.18;100.00;46554.91;5032908;28;20057;-64
2023/05/19 06:37:01;;;;;;;15.37;5.83;;;;;;;-145.18;100.00;46535.38;5050332;28;20044;-64
2023/05/19 06:39:26;;;;;;;9.23;5.83;;;;;;;-145.18;100.00;46537.34;5023324;28;20444;-64
2023/05/19 06:41:52;;;;;;;9.43;5.20;;;;;;;-145.18;100.00;46539.28;5037245;28;20283;-65
2023/05/19 06:44:17;;;;;;;13.50;6.27;;;;;;;-145.18;100.00;46539.28;5034150;28;20389;-65
2023/05/19 06:46:43;;;;;;;10.40;5.67;;;;;;;-145.18;100.00;46535.38;5048893;28;20539;-64
2023/05/19 06:49:09;;;;;;;15.17;5.80;;;;;;;-145.18;100.00;46541.25;5045582;28;20037;-64
2023/05/19 06:51:35;;;;;;;12.00;5.70;;;;;;;-145.18;100.00;46552.97;5039948;28;20029;-64
2023/05/19 06:54:00;;;;;;;10.83;4.97;;;;;;;-145.18;100.00;46558.81;5044968;28;20626;-64
2023/05/19 06:56:25;;;;;;;12.17;5.53;;;;;;;-145.18;100.00;46554.91;5043790;28;20027;-64
2023/05/19 06:58:51;;;;;;;11.80;5.60;;;;;;;-145.18;100.00;46566.63;5029760;28;20482;-65
2023/05/19 07:01:16;;;;;;;11.33;5.53;;;;;;;-145.18;100.00;46558.81;5037428;28;20021;-64
2023/05/19 07:03:41;;;;;;;9.30;5.03;;;;;;;-145.18;100.00;46568.59;5043193;28;20037;-64
2023/05/19 07:06:07;;;;;;;12.67;5.10;;;;;;;-145.18;100.00;46572.50;5037941;28;20033;-64
2023/05/19 07:08:34;;;;;;;12.60;6.23;;;;;;;-145.18;100.00;46566.63;5047281;28;20037;-64
2023/05/19 07:10:59;;;;;;;14.07;5.00;;;;;;;-145.18;100.00;46572.50;5043490;28;20155;-65
2023/05/19 07:13:24;;;;;;;7.00;4.80;;;;;;;-145.18;100.00;46572.50;5050131;28;20100;-64
2023/05/19 07:15:51;;;;;;;10.27;5.33;;;;;;;-145.18;100.00;46574.44;5041373;28;20079;-65
2023/05/19 07:18:16;;;;;;;9.57;4.97;;;;;;;-145.18;100.00;46584.22;5043734;28;20045;-65
2023/05/19 07:20:42;;;;;;;10.40;5.03;;;;;;;-145.18;100.00;46588.13;5045859;28;20039;-64
2023/05/19 07:23:07;;;;;;;7.80;4.33;;;;;;;-145.18;100.00;46607.66;5040404;28;20092;-65
2023/05/19 07:25:33;;;;;;;11.33;4.87;;;;;;;-145.18;100.00;46586.16;5037409;28;20060;-64
2023/05/19 07:27:58;;;;;;;18.40;4.83;;;;;;;-145.18;100.00;46605.69;5040102;28;20116;-64
2023/05/19 07:30:26;;;;;;;11.50;4.90;;;;;;;-145.18;100.00;46617.41;5040924;28;20055;-65
2023/05/19 07:32:51;;;;;;;12.60;4.63;;;;;;;-145.18;100.00;46607.66;5043116;28;20025;-64
2023/05/19 07:35:17;;;;;;;10.33;4.70;;;;;;;-145.18;100.00;46603.75;5025374;28;20132;-64
2023/05/19 07:37:42;;;;;;;11.60;5.07;;;;;;;-145.18;100.00;46664.31;5025791;28;20041;-64
2023/05/19 07:40:08;;;;;;;9.97;4.03;;;;;;;-145.18;100.00;46672.13;5026448;28;20199;-64
2023/05/19 07:42:33;;;;;;;6.50;4.20;;;;;;;-145.18;100.00;46687.75;5039549;28;20033;-65
2023/05/19 07:44:59;;;;;;;10.30;5.10;;;;;;;-145.18;100.00;46691.66;5022378;28;20509;-65
2023/05/19 07:47:24;;;;;;;8.90;4.20;;;;;;;-145.18;100.00;46676.03;5049866;28;20482;-65
2023/05/19 07:49:50;;;;;;;10.63;4.43;;;;;;;-145.18;100.00;46668.22;5029926;28;20048;-65
2023/05/19 07:52:17;;;;;;;8.87;4.10;;;;;;;-145.18;100.00;46713.13;5041760;28;20037;-65
2023/05/19 07:54:43;;;;;;;9.60;4.20;;;;;;;-145.18;100.00;46683.84;5024146;28;20033;-65
2023/05/19 07:57:08;;;;;;;9.53;4.13;;;;;;;-145.18;100.00;46750.25;5043205;28;20034;-64
2023/05/19 07:59:33;;;;;;;9.47;4.00;;;;;;;-145.18;100.00;46797.13;5024586;28;20124;-64
2023/05/19 08:01:59;;;;;;;10.90;3.97;;;;;;;-145.18;100.00;47135.09;5023588;28;20041;-65
2023/05/19 08:04:24;;;;;;;11.43;3.73;;;;;;;-145.18;100.00;47271.84;5043180;28;20041;-64
2023/05/19 08:06:51;;;;;;;9.03;4.30;;;;;;;-145.18;100.00;47312.88;5041289;28;20180;-64
2023/05/19 08:09:17;;;;;;;8.10;4.23;;;;;;;-145.18;100.00;46994.44;5043267;28;20052;-65
2023/05/19 08:11:43;;;;;;;7.13;3.47;;;;;;;-145.18;100.00;47115.56;5042126;28;20067;-64
2023/05/19 08:14:09;;;;;;;10.53;3.97;;;;;;;-145.18;100.00;47232.75;5042192;28;20041;-65
2023/05/19 08:16:35;;;;;;;9.33;3.47;;;;;;;-145.18;100.00;47324.59;5024155;28;20084;-63
2023/05/19 08:19:03;;;;;;;14.10;3.90;;;;;;;-145.18;100.00;47234.72;5040512;28;20055;-64
2023/05/19 08:21:29;;;;;;;5.90;3.73;;;;;;;-145.18;100.00;47340.22;5043689;28;20040;-65
2023/05/19 08:23:55;;;;;;;6.77;3.40;;;;;;;-145.18;100.00;47336.31;5040317;28;20033;-64
2023/05/19 08:26:21;;;;;;;6.37;3.20;;;;;;;-145.18;100.00;47344.13;5043782;28;20056;-64
2023/05/19 08:28:47;;;;;;;8.63;3.87;;;;;;;-145.18;100.00;47336.31;5042187;28;20053;-64
2023/05/19 08:31:12;;;;;;;5.73;3.30;;;;;;;-145.18;100.00;47340.22;5041572;28;20025;-65
2023/05/19 08:33:37;;;;;;;11.97;4.13;;;;;;;-145.18;100.00;47328.50;5023597;28;20048;-65
2023/05/19 08:36:03;;;;;;;6.70;3.17;;;;;;;-145.18;100.00;47320.69;5040640;28;20033;-64
2023/05/19 08:38:28;;;;;;;7.40;3.47;;;;;;;-145.18;100.00;47336.31;5025453;28;20078;-64
2023/05/19 08:40:54;;;;;;;12.70;3.87;;;;;;;-145.18;100.00;47332.41;5041294;28;20056;-64
2023/05/19 08:43:20;;;;;;;11.57;3.60;;;;;;;-145.18;100.00;47299.19;5045020;28;20040;-64
2023/05/19 08:45:46;;;;;;;5.93;3.20;;;;;;;-145.18;100.00;47279.66;5042552;28;20407;-65
2023/05/19 08:48:13;;;;;;;10.10;3.07;;;;;;;-145.18;100.00;47269.88;5039291;28;20025;-65
2023/05/19 08:50:43;;;;;;;7.33;3.20;;;;;;;-145.18;100.00;47275.75;5042826;28;20024;-64
2023/05/19 08:53:21;;;;;;;7.40;3.47;;;;;;;-145.18;100.00;47265.97;5041788;28;20024;-64
2023/05/19 08:56:00;;;;;;;7.67;3.60;;;;;;;-145.18;100.00;47277.69;5042003;28;20028;-65
2023/05/19 08:58:27;;;;;;;7.30;3.40;;;;;;;-145.18;100.00;47264.03;5047858;28;20492;-65
2023/05/19 09:00:55;;;;;;;9.33;4.10;;;;;;;-145.18;100.00;47246.44;5052587;28;20446;-65
2023/05/19 09:03:21;;;;;;;8.43;3.70;;;;;;;-145.18;100.00;47242.53;5052932;28;20563;-65
2023/05/19 09:05:47;;;;;;;8.30;3.27;;;;;;;-145.18;100.00;47238.63;5051954;28;20029;-64
2023/05/19 09:08:12;;;;;;;7.80;3.23;;;;;;;-145.18;100.00;47230.81;5039766;28;20048;-64
2023/05/19 09:10:38;;;;;;;7.97;3.10;;;;;;;-145.18;100.00;47213.22;5035867;28;20382;-64
2023/05/19 09:13:04;;;;;;;7.00;3.20;;;;;;;-145.18;100.00;47205.41;5053492;28;20077;-65
2023/05/19 09:15:32;;;;;;;10.43;4.10;;;;;;;-145.18;100.00;47211.28;5040284;28;20116;-65
2023/05/19 09:18:08;;;;;;;9.30;3.40;;;;;;;-145.18;100.00;47185.88;5046231;28;20107;-64
2023/05/19 09:20:42;;;;;;;7.90;3.47;;;;;;;-145.18;100.00;47176.09;5052037;28;20029;-64
2023/05/19 09:23:12;;;;;;;9.27;3.40;;;;;;;-145.18;100.00;47166.34;5051743;28;20029;-65
2023/05/19 09:25:45;;;;;;;6.90;2.83;;;;;;;-145.18;100.00;47174.16;5052002;28;20103;-64
2023/05/19 09:28:11;;;;;;;9.47;3.60;;;;;;;-145.18;100.00;47183.94;5033279;28;20451;-64
2023/05/19 09:30:36;;;;;;;8.77;2.70;;;;;;;-145.18;100.00;47166.34;5044243;28;20112;-65
2023/05/19 09:33:03;;;;;;;6.03;3.03;;;;;;;-145.18;100.00;47162.44;5043064;28;20049;-65
2023/05/19 09:35:28;;;;;;;9.43;2.70;;;;;;;-145.18;100.00;47164.38;5045643;28;20029;-65
2023/05/19 09:37:54;;;;;;;8.07;2.97;;;;;;;-145.18;100.00;47170.25;5032724;28;20090;-65
2023/05/19 09:40:19;;;;;;;6.73;2.93;;;;;;;-145.18;100.00;47189.78;5032312;28;20116;-64
2023/05/19 09:42:47;;;;;;;5.67;2.63;;;;;;;-145.18;100.00;47180.03;5029410;28;20479;-65
2023/05/19 09:45:12;;;;;;;6.27;3.07;;;;;;;-145.18;100.00;47152.66;5032044;28;20056;-64
2023/05/19 09:47:40;;;;;;;6.67;2.30;;;;;;;-145.18;100.00;47144.84;5032350;28;20029;-64
2023/05/19 09:50:10;;;;;;;4.90;2.43;;;;;;;-145.18;100.00;47152.66;5050268;28;20029;-64
2023/05/19 09:52:42;;;;;;;5.67;2.10;;;;;;;-145.18;100.00;47137.03;5051660;28;20031;-64
2023/05/19 09:55:10;;;;;;;6.43;2.27;;;;;;;-145.18;100.00;47131.19;5051862;28;20051;-65
2023/05/19 09:57:36;;;;;;;7.47;2.33;;;;;;;-145.18;100.00;47144.84;5034447;28;20025;-64
2023/05/19 10:00:18;;;;;;;4.93;1.80;;;;;;;-145.18;100.00;47140.94;5051586;28;20563;-64
2023/05/19 10:02:46;;;;;;;5.77;2.10;;;;;;;-145.18;100.00;47129.22;5025129;28;20037;-64
2023/05/19 10:05:15;;;;;;;5.33;2.00;;;;;;;-145.18;100.00;47129.22;5031880;28;20025;-64
2023/05/19 10:07:43;;;;;;;4.20;2.13;;;;;;;-145.18;100.00;47135.09;5066493;28;20382;-64
2023/05/19 10:10:11;;;;;;;3.37;1.53;;;;;;;-145.18;100.00;47109.69;5035652;28;20041;-64
2023/05/19 10:12:38;;;;;;;5.23;1.67;;;;;;;-145.18;100.00;47121.41;5031776;28;20363;-65
2023/05/19 10:15:10;;;;;;;5.97;1.60;;;;;;;-145.18;100.00;47133.13;5037173;28;20021;-65
2023/05/19 10:17:37;;;;;;;8.57;2.13;;;;;;;-145.18;100.00;47133.13;5017245;28;20131;-64
2023/05/19 10:20:05;;;;;;;3.50;1.83;;;;;;;-145.18;100.00;47094.06;5031923;28;20025;-63
2023/05/19 10:22:31;;;;;;;8.20;2.07;;;;;;;-145.18;100.00;47107.72;5031801;28;20095;-64
2023/05/19 10:24:57;;;;;;;6.77;2.40;;;;;;;-145.18;100.00;47117.50;5041456;28;20489;-64
2023/05/19 10:27:25;;;;;;;4.47;2.23;;;;;;;-145.18;100.00;47127.28;5051805;28;20078;-65
2023/05/19 10:29:56;;;;;;;3.70;2.00;;;;;;;-145.18;100.00;47127.28;5051537;28;20112;-65
2023/05/19 10:32:29;;;;;;;9.03;2.57;;;;;;;-145.18;100.00;47111.66;5051122;28;20021;-64
2023/05/19 10:35:23;;;;;;;6.40;2.20;;;;;;;-145.18;100.00;47105.78;5051302;28;20489;-64
2023/05/19 10:37:51;;;;;;;7.77;2.47;;;;;;;-145.18;100.00;47119.47;5049956;28;20596;-64
2023/05/19 10:40:37;;;;;;;6.13;2.30;;;;;;;-145.18;100.00;47117.50;5061083;28;20031;-65
2023/05/19 10:43:10;;;;;;;5.47;2.50;;;;;;;-145.18;100.00;47119.47;5075442;28;20028;-64
2023/05/19 10:45:44;;;;;;;3.73;1.90;;;;;;;-145.18;100.00;47101.88;5054704;28;20036;-64
2023/05/19 10:48:13;;;;;;;5.13;2.37;;;;;;;-145.18;100.00;47096.00;5055477;28;20029;-64
2023/05/19 10:50:38;;;;;;;7.40;2.80;;;;;;;-145.18;100.00;47113.59;5055538;28;20036;-64
2023/05/19 10:53:12;;;;;;;4.60;2.00;;;;;;;-145.18;100.00;47115.56;5055228;28;20028;-65
2023/05/19 10:55:48;;;;;;;4.77;2.20;;;;;;;-145.18;100.00;47121.41;5055359;28;20049;-65
2023/05/19 10:58:13;;;;;;;8.03;2.60;;;;;;;-145.18;100.00;47125.31;5049445;28;20543;-64
2023/05/19 11:00:40;;;;;;;4.80;1.97;;;;;;;-145.18;100.00;47084.28;5055235;28;20064;-65
2023/05/19 11:03:13;;;;;;;3.13;1.97;;;;;;;-145.18;100.00;47088.19;5054979;28;20478;-64
2023/05/19 11:05:39;;;;;;;5.00;1.97;;;;;;;-145.18;100.00;47101.88;5054748;28;20033;-64